Terminal Aerodrome Forecast
Issued by NWS Charleston, WV

Current Version | Previous Version | Text Only | Print | Product List | Glossary Off
Versions: 1 2 3 4 5 6 7 8 9 10 11 12 13 14 15 16 17 18 19 20 21 22 23 24 25 26 27 28 29 30

762
FTUS41 KRLX 261746
TAFEKN
TAF
KEKN 261746Z 2618/2718 29005KT P6SM VCTS BKN040CB
     FM270200 00000KT P6SM VCSH BKN045
     FM270300 00000KT 6SM BR BKN060
     FM270600 00000KT 3SM BR BKN070
     FM271300 00000KT 6SM BR SCT040 BKN080
     FM271600 VRB04KT P6SM VCTS BKN040CB=

USA.gov is the U.S. government's official web portal to all federal, state and local government web resources and services.